Time;durP1;ratioP1;P1;durP2;ratioP2;P2;SDS_P1;SDS_P2;PMS_P1;PMS_P2;Temp;Humidity;BMP_temperature;BMP_pressure;BME280_temperature;BME280_humidity;BME280_pressure;Samples;Min_cycle;Max_cycle;Signal;HPM_P1;HPM_P2
2023/03/07 00:01:24;;;;;;;8.37;3.00;;;4.20;98.00;;;;;;5071375;28;20503;-67
2023/03/07 00:03:51;;;;;;;5.60;2.77;;;4.20;98.00;;;;;;5071451;28;20486;-67
2023/03/07 00:06:19;;;;;;;2.53;1.93;;;4.20;98.00;;;;;;5071404;28;20502;-66
2023/03/07 00:08:50;;;;;;;1.93;1.70;;;4.10;98.00;;;;;;5071076;28;20815;-68
2023/03/07 00:11:17;;;;;;;6.43;3.10;;;4.10;98.00;;;;;;5071382;28;20562;-67
2023/03/07 00:13:44;;;;;;;3.13;2.57;;;4.10;98.00;;;;;;5071063;28;20526;-67
2023/03/07 00:16:14;;;;;;;9.43;3.10;;;4.10;98.00;;;;;;5071197;28;20465;-68
2023/03/07 00:18:42;;;;;;;3.47;2.37;;;4.10;98.00;;;;;;5071155;28;20459;-68
2023/03/07 00:21:12;;;;;;;3.80;2.43;;;4.10;98.00;;;;;;5071384;28;20451;-67
2023/03/07 00:23:42;;;;;;;3.30;2.27;;;4.10;98.00;;;;;;5071035;28;20485;-67
2023/03/07 00:26:15;;;;;;;2.50;2.00;;;4.20;98.00;;;;;;5071276;28;20458;-68
2023/03/07 00:28:43;;;;;;;5.40;2.57;;;4.30;98.00;;;;;;5071355;28;20454;-67
2023/03/07 00:31:11;;;;;;;5.80;2.60;;;4.20;98.00;;;;;;5071265;28;20467;-67
2023/03/07 00:33:39;;;;;;;5.03;2.90;;;4.20;98.00;;;;;;5071097;28;20871;-67
2023/03/07 00:36:11;;;;;;;3.33;2.43;;;4.20;98.00;;;;;;5071062;28;20459;-67
2023/03/07 00:38:41;;;;;;;3.93;2.23;;;4.20;98.00;;;;;;5071134;28;20749;-67
2023/03/07 00:41:10;;;;;;;3.63;2.73;;;4.10;98.00;;;;;;5070964;28;20463;-67
2023/03/07 00:43:38;;;;;;;3.73;2.17;;;4.20;98.00;;;;;;5073656;28;20581;-68
2023/03/07 00:46:06;;;;;;;5.13;2.93;;;4.20;98.00;;;;;;5075074;28;20880;-67
2023/03/07 00:48:33;;;;;;;4.43;2.93;;;4.20;98.00;;;;;;5057442;28;20455;-67
2023/03/07 00:51:02;;;;;;;3.50;1.90;;;4.20;98.00;;;;;;5074292;28;20491;-67
2023/03/07 00:53:29;;;;;;;4.53;2.27;;;4.10;98.00;;;;;;5075166;28;20459;-67
2023/03/07 00:56:00;;;;;;;2.80;1.90;;;4.10;98.00;;;;;;5075020;28;20464;-67
2023/03/07 00:58:28;;;;;;;3.40;2.33;;;4.20;98.00;;;;;;5075098;28;20465;-67
2023/03/07 01:00:56;;;;;;;4.60;2.80;;;4.10;98.00;;;;;;5074875;28;20819;-68
2023/03/07 01:03:24;;;;;;;4.27;2.60;;;4.20;98.00;;;;;;5074798;28;20488;-68
2023/03/07 01:05:53;;;;;;;3.60;2.60;;;4.20;98.00;;;;;;5074653;28;20834;-67
2023/03/07 01:08:22;;;;;;;6.30;2.00;;;4.10;98.00;;;;;;5074922;28;20546;-67
2023/03/07 01:10:49;;;;;;;3.87;2.27;;;4.10;98.00;;;;;;5073792;28;20511;-66
2023/03/07 01:13:19;;;;;;;4.67;2.53;;;4.20;98.00;;;;;;5074651;28;20508;-67
2023/03/07 01:15:46;;;;;;;2.93;2.00;;;4.20;98.00;;;;;;5074570;28;21017;-67
2023/03/07 01:18:13;;;;;;;4.07;1.83;;;4.20;98.00;;;;;;5074502;28;20459;-67
2023/03/07 01:20:40;;;;;;;6.07;2.93;;;4.10;98.00;;;;;;5056616;28;20478;-67
2023/03/07 01:23:07;;;;;;;5.47;3.20;;;4.20;98.00;;;;;;5074656;28;20486;-67
2023/03/07 01:25:38;;;;;;;4.60;2.60;;;4.20;98.00;;;;;;5074529;28;20458;-67
2023/03/07 01:28:06;;;;;;;9.83;3.70;;;4.20;98.00;;;;;;5074702;28;20896;-67
2023/03/07 01:30:35;;;;;;;5.30;2.47;;;4.10;98.00;;;;;;5074357;28;20960;-67
2023/03/07 01:33:02;;;;;;;5.37;2.53;;;4.20;98.00;;;;;;5074367;28;20931;-67
2023/03/07 01:35:30;;;;;;;3.03;2.10;;;4.20;98.00;;;;;;5074143;28;20549;-67
2023/03/07 01:37:57;;;;;;;6.60;2.80;;;4.10;98.00;;;;;;5074216;28;20819;-67
2023/03/07 01:40:24;;;;;;;4.23;2.40;;;4.20;98.00;;;;;;5056510;28;20450;-67
2023/03/07 01:42:53;;;;;;;2.47;1.80;;;4.10;98.00;;;;;;5073836;28;20573;-67
2023/03/07 01:46:08;;;;;;;7.10;2.90;;;4.20;98.00;;;;;;5073859;28;20508;-67
2023/03/07 01:48:37;;;;;;;3.87;2.17;;;4.10;98.00;;;;;;5011544;28;20461;-67
2023/03/07 01:51:05;;;;;;;3.20;2.30;;;4.10;98.00;;;;;;5059659;28;20455;-67
2023/03/07 01:53:32;;;;;;;3.53;2.00;;;4.20;98.00;;;;;;5073403;28;20465;-67
2023/03/07 01:56:00;;;;;;;4.27;2.27;;;4.20;98.00;;;;;;5073603;28;20955;-67
2023/03/07 01:58:27;;;;;;;4.37;2.33;;;4.10;98.00;;;;;;5073659;28;20542;-67
2023/03/07 02:00:54;;;;;;;4.17;2.47;;;4.10;98.00;;;;;;5073564;28;20456;-67
2023/03/07 02:03:30;;;;;;;5.50;2.90;;;4.10;98.00;;;;;;5073856;28;20483;-67
2023/03/07 02:06:01;;;;;;;5.57;3.33;;;4.00;98.00;;;;;;5073625;28;20594;-67
2023/03/07 02:08:31;;;;;;;8.83;2.87;;;4.00;98.00;;;;;;5073579;28;20485;-67
2023/03/07 02:10:58;;;;;;;3.83;2.37;;;4.10;98.00;;;;;;5073546;28;20454;-67
2023/03/07 02:13:25;;;;;;;3.53;2.40;;;4.10;98.00;;;;;;5073563;28;20472;-67
2023/03/07 02:15:52;;;;;;;3.40;2.20;;;4.10;98.00;;;;;;5073456;28;20965;-67
2023/03/07 02:18:24;;;;;;;2.33;2.20;;;4.10;98.00;;;;;;5073504;28;20528;-67
2023/03/07 02:20:59;;;;;;;3.10;2.00;;;4.20;98.00;;;;;;5073581;28;20466;-67
2023/03/07 02:23:32;;;;;;;4.97;2.97;;;4.20;98.00;;;;;;5072993;28;20489;-67
2023/03/07 02:26:06;;;;;;;3.10;1.97;;;4.20;98.00;;;;;;5073542;28;20461;-67
2023/03/07 02:28:35;;;;;;;3.50;2.40;;;4.10;98.00;;;;;;5073086;28;20465;-67
2023/03/07 02:31:06;;;;;;;3.60;2.07;;;4.10;98.00;;;;;;5073024;28;20453;-67
2023/03/07 02:33:33;;;;;;;3.23;2.03;;;4.10;98.00;;;;;;5073161;28;20453;-67
2023/03/07 02:36:04;;;;;;;4.30;2.10;;;4.10;98.00;;;;;;5072878;28;20470;-68
2023/03/07 02:38:36;;;;;;;3.77;2.63;;;4.10;98.00;;;;;;5055340;28;20955;-66
2023/03/07 02:41:04;;;;;;;3.93;2.67;;;4.00;98.00;;;;;;5072958;28;20518;-68
2023/03/07 02:43:31;;;;;;;3.97;2.17;;;4.00;98.00;;;;;;5072851;28;20902;-67
2023/03/07 02:45:59;;;;;;;5.43;2.23;;;4.00;98.00;;;;;;5072659;28;20471;-67
2023/03/07 02:48:26;;;;;;;5.90;2.63;;;4.00;98.00;;;;;;5072683;28;20466;-67
2023/03/07 02:50:54;;;;;;;2.70;1.93;;;4.00;98.00;;;;;;5072878;28;20872;-67
2023/03/07 02:53:22;;;;;;;5.77;2.20;;;4.00;98.00;;;;;;5073079;28;20866;-67
2023/03/07 02:55:49;;;;;;;2.13;1.80;;;4.00;98.00;;;;;;5055154;28;20548;-67
2023/03/07 02:58:19;;;;;;;6.00;2.53;;;4.00;98.00;;;;;;5072874;28;20795;-67
2023/03/07 03:00:46;;;;;;;3.03;2.33;;;4.00;98.00;;;;;;5072117;28;20470;-67
2023/03/07 03:03:15;;;;;;;2.70;2.23;;;4.00;98.00;;;;;;5072494;28;20481;-67
2023/03/07 03:05:42;;;;;;;7.00;2.00;;;4.00;98.00;;;;;;5071734;28;20880;-67
2023/03/07 03:08:09;;;;;;;5.67;3.20;;;4.00;98.00;;;;;;5054041;28;20497;-68
2023/03/07 03:10:36;;;;;;;3.93;2.80;;;4.00;98.00;;;;;;5072330;28;20452;-67
2023/03/07 03:13:03;;;;;;;3.43;2.10;;;4.20;98.00;;;;;;5072299;28;20451;-67
2023/03/07 03:15:30;;;;;;;10.73;3.50;;;4.20;98.00;;;;;;5072438;28;20502;-67
2023/03/07 03:17:57;;;;;;;6.03;3.83;;;4.20;98.00;;;;;;5054880;28;20507;-67
2023/03/07 03:20:29;;;;;;;2.90;2.43;;;4.20;98.00;;;;;;5072511;28;20470;-67
2023/03/07 03:22:56;;;;;;;2.90;2.00;;;4.20;98.00;;;;;;5072137;28;20478;-67
2023/03/07 03:25:24;;;;;;;4.90;2.57;;;4.30;98.00;;;;;;5072259;28;20456;-67
2023/03/07 03:27:51;;;;;;;3.60;2.13;;;4.30;98.00;;;;;;5071958;28;21044;-67
2023/03/07 03:30:18;;;;;;;2.63;2.10;;;4.30;98.00;;;;;;5054378;28;20465;-67
2023/03/07 03:32:46;;;;;;;7.23;3.00;;;4.30;98.00;;;;;;5071785;28;20456;-67
2023/03/07 03:35:13;;;;;;;5.00;2.77;;;4.30;98.00;;;;;;5071999;28;20528;-68
2023/03/07 03:37:41;;;;;;;6.47;3.50;;;4.30;98.00;;;;;;5071701;28;20459;-67
2023/03/07 03:40:13;;;;;;;2.70;2.60;;;4.30;98.00;;;;;;5071762;28;20478;-67
2023/03/07 03:42:41;;;;;;;2.47;1.80;;;4.30;98.00;;;;;;5071643;28;20841;-67
2023/03/07 03:45:10;;;;;;;2.67;2.37;;;4.30;98.00;;;;;;5054129;28;20464;-67
2023/03/07 03:47:37;;;;;;;4.30;2.90;;;4.20;98.00;;;;;;5053642;28;20467;-67
2023/03/07 03:50:05;;;;;;;4.50;2.67;;;4.30;98.00;;;;;;5071875;28;20455;-66
2023/03/07 03:52:34;;;;;;;3.40;2.37;;;4.30;98.00;;;;;;5071477;28;20944;-68
2023/03/07 03:55:03;;;;;;;2.63;1.67;;;4.30;98.00;;;;;;5071543;28;20496;-67
2023/03/07 03:57:31;;;;;;;3.90;2.67;;;4.30;98.00;;;;;;5071670;28;20517;-67
2023/03/07 03:59:58;;;;;;;4.30;2.57;;;4.20;98.00;;;;;;5071563;28;20539;-67
2023/03/07 04:02:25;;;;;;;2.80;1.90;;;4.30;98.00;;;;;;5071676;28;20964;-67
2023/03/07 04:04:52;;;;;;;2.37;2.00;;;4.30;98.00;;;;;;5071335;28;20487;-67
2023/03/07 04:07:19;;;;;;;4.57;2.13;;;4.40;98.00;;;;;;5071465;28;20890;-67
2023/03/07 04:09:47;;;;;;;4.87;2.87;;;4.50;98.00;;;;;;5071410;28;20454;-67
2023/03/07 04:12:15;;;;;;;10.57;2.93;;;4.50;98.00;;;;;;5071414;28;20960;-67
2023/03/07 04:14:42;;;;;;;6.97;3.00;;;4.40;98.00;;;;;;5071415;28;20944;-67
2023/03/07 04:17:10;;;;;;;4.77;2.43;;;4.40;98.00;;;;;;5071188;28;20497;-66
2023/03/07 04:19:37;;;;;;;4.03;2.80;;;4.30;98.00;;;;;;5071770;28;20466;-68
2023/03/07 04:22:04;;;;;;;4.83;3.20;;;4.30;98.00;;;;;;5071319;28;20465;-68
2023/03/07 04:24:32;;;;;;;3.30;2.20;;;4.30;98.00;;;;;;5071329;28;20975;-67
2023/03/07 04:26:59;;;;;;;3.40;2.43;;;4.20;98.00;;;;;;5053439;28;20451;-67
2023/03/07 04:29:29;;;;;;;6.90;2.03;;;4.30;98.00;;;;;;5071250;28;20997;-67
2023/03/07 04:31:56;;;;;;;7.80;3.03;;;4.30;98.00;;;;;;5071143;28;20469;-68
2023/03/07 04:34:23;;;;;;;6.70;2.73;;;4.30;98.00;;;;;;5053269;28;20514;-67
2023/03/07 04:36:50;;;;;;;3.30;2.37;;;4.30;98.00;;;;;;5053198;28;20456;-67
2023/03/07 04:39:17;;;;;;;5.90;3.53;;;4.40;98.00;;;;;;5070608;28;20983;-67
2023/03/07 04:41:44;;;;;;;5.90;2.50;;;4.40;98.00;;;;;;5070967;28;20460;-67
2023/03/07 04:44:11;;;;;;;5.57;2.40;;;4.30;98.00;;;;;;5070921;28;20484;-67
2023/03/07 04:46:40;;;;;;;6.43;2.97;;;4.30;98.00;;;;;;5070887;28;20466;-66
2023/03/07 04:49:07;;;;;;;4.30;2.27;;;4.20;98.00;;;;;;5070884;28;20516;-67
2023/03/07 04:51:34;;;;;;;7.70;3.00;;;4.10;98.00;;;;;;5070965;28;20453;-67
2023/03/07 04:54:02;;;;;;;2.43;2.03;;;4.20;98.00;;;;;;5053206;28;20457;-67
2023/03/07 04:56:29;;;;;;;5.37;2.60;;;4.20;98.00;;;;;;5053134;28;20860;-67
2023/03/07 04:58:58;;;;;;;5.90;2.73;;;4.30;98.00;;;;;;5070933;28;20457;-67
2023/03/07 05:01:25;;;;;;;7.20;3.67;;;4.10;98.00;;;;;;5070484;28;20465;-67
2023/03/07 05:03:54;;;;;;;7.60;2.40;;;4.20;98.00;;;;;;5070824;28;20513;-67
2023/03/07 05:06:22;;;;;;;7.30;3.00;;;4.20;98.00;;;;;;5070771;28;20466;-67
2023/03/07 05:08:49;;;;;;;4.10;2.80;;;4.20;98.00;;;;;;5069778;28;20796;-67
2023/03/07 05:11:16;;;;;;;4.50;2.50;;;4.20;98.00;;;;;;5053382;28;20466;-67
2023/03/07 05:13:43;;;;;;;3.50;2.30;;;4.30;98.00;;;;;;5053025;28;20866;-67
2023/03/07 05:16:10;;;;;;;5.53;2.53;;;4.20;98.00;;;;;;5052748;28;20476;-67
2023/03/07 05:18:40;;;;;;;2.70;2.33;;;4.10;98.00;;;;;;5071100;28;20455;-67
2023/03/07 05:21:09;;;;;;;4.27;2.17;;;4.10;98.00;;;;;;5053699;28;20460;-67
2023/03/07 05:23:36;;;;;;;3.53;2.60;;;4.20;98.00;;;;;;5070755;28;20488;-67
2023/03/07 05:26:03;;;;;;;4.10;2.40;;;4.30;98.00;;;;;;5070670;28;20472;-67
2023/03/07 05:28:30;;;;;;;2.37;1.87;;;4.30;98.00;;;;;;5071653;28;20463;-67
2023/03/07 05:30:57;;;;;;;3.70;2.10;;;4.30;98.00;;;;;;5074312;28;20549;-67
2023/03/07 05:33:25;;;;;;;4.67;2.73;;;4.40;98.00;;;;;;5056560;28;20877;-67
2023/03/07 05:35:54;;;;;;;3.47;2.63;;;4.40;98.00;;;;;;5074343;28;20465;-67
2023/03/07 05:38:22;;;;;;;4.33;2.43;;;4.30;98.00;;;;;;5056192;28;20539;-67
2023/03/07 05:40:50;;;;;;;5.10;2.80;;;4.20;98.00;;;;;;5074236;28;20466;-67
2023/03/07 05:43:17;;;;;;;4.00;2.53;;;4.20;98.00;;;;;;5074146;28;20632;-67
2023/03/07 05:45:44;;;;;;;2.63;2.00;;;4.20;98.00;;;;;;5074114;28;21001;-67
2023/03/07 05:48:11;;;;;;;3.40;2.17;;;4.30;98.00;;;;;;5073765;28;20469;-67
2023/03/07 05:50:38;;;;;;;4.40;2.23;;;4.30;98.00;;;;;;5073999;28;20454;-67
2023/03/07 05:53:08;;;;;;;5.63;2.97;;;4.30;98.00;;;;;;5073794;28;20497;-67
2023/03/07 05:55:37;;;;;;;2.70;2.50;;;4.40;98.00;;;;;;5073792;28;20465;-67
2023/03/07 05:58:04;;;;;;;2.50;1.97;;;4.30;98.00;;;;;;5073264;28;20532;-67
2023/03/07 06:00:31;;;;;;;3.83;2.83;;;4.20;98.00;;;;;;5073779;28;20459;-67
2023/03/07 06:03:01;;;;;;;11.20;2.60;;;4.20;98.00;;;;;;5074157;28;20459;-68
2023/03/07 06:05:28;;;;;;;3.53;2.93;;;4.20;98.00;;;;;;5073541;28;20490;-67
2023/03/07 06:07:55;;;;;;;4.40;2.47;;;4.20;98.00;;;;;;5073834;28;20464;-67
2023/03/07 06:10:22;;;;;;;5.53;3.27;;;4.30;98.00;;;;;;5073623;28;20471;-67
2023/03/07 06:12:51;;;;;;;3.97;2.63;;;4.30;98.00;;;;;;5073570;28;20459;-67
2023/03/07 06:15:18;;;;;;;8.57;2.43;;;4.20;98.00;;;;;;5073566;28;20446;-67
2023/03/07 06:17:47;;;;;;;2.43;1.80;;;4.30;98.00;;;;;;5073727;28;20470;-67
2023/03/07 06:20:14;;;;;;;2.90;2.10;;;4.40;98.00;;;;;;5055643;28;20871;-67
2023/03/07 06:22:43;;;;;;;3.20;2.00;;;4.30;98.00;;;;;;5073358;28;20960;-67
2023/03/07 06:25:10;;;;;;;1.80;1.60;;;4.40;98.00;;;;;;5073182;28;20496;-67
2023/03/07 06:27:39;;;;;;;4.20;2.40;;;4.50;98.00;;;;;;5073347;28;20485;-67
2023/03/07 06:30:11;;;;;;;2.63;1.80;;;4.50;98.00;;;;;;5073460;28;20497;-67
2023/03/07 06:32:38;;;;;;;2.80;2.43;;;4.50;98.00;;;;;;5072758;28;20534;-67
2023/03/07 06:35:05;;;;;;;4.50;2.37;;;4.50;98.00;;;;;;5073300;28;20543;-67
2023/03/07 06:37:32;;;;;;;2.43;1.80;;;4.50;98.00;;;;;;5073406;28;20458;-67
2023/03/07 06:40:05;;;;;;;2.47;1.77;;;4.40;98.00;;;;;;5073284;28;20517;-67
2023/03/07 06:42:32;;;;;;;2.90;2.00;;;4.50;98.00;;;;;;5055936;28;20463;-67
2023/03/07 06:44:59;;;;;;;3.40;2.33;;;4.50;98.00;;;;;;5055549;28;20582;-67
2023/03/07 06:47:28;;;;;;;4.80;1.60;;;4.50;98.00;;;;;;5072983;28;20463;-67
2023/03/07 06:49:55;;;;;;;2.30;1.63;;;4.60;98.00;;;;;;5072922;28;20524;-67
2023/03/07 06:52:22;;;;;;;3.33;1.93;;;4.50;98.00;;;;;;5072805;28;20460;-67
2023/03/07 06:54:49;;;;;;;1.67;1.37;;;4.50;98.00;;;;;;5072815;28;20509;-67
2023/03/07 06:57:17;;;;;;;5.33;2.30;;;4.50;98.00;;;;;;5071795;28;20461;-67
2023/03/07 06:59:44;;;;;;;3.13;1.80;;;4.60;98.00;;;;;;5071441;28;20462;-68
2023/03/07 07:02:15;;;;;;;2.67;1.50;;;4.50;98.00;;;;;;5055353;28;20463;-63
2023/03/07 07:04:44;;;;;;;3.57;2.50;;;4.50;98.00;;;;;;5072683;28;20509;-64
2023/03/07 07:07:11;;;;;;;7.00;2.60;;;4.60;98.00;;;;;;5072757;28;20479;-64
2023/03/07 07:09:39;;;;;;;2.57;2.30;;;4.60;98.00;;;;;;5072783;28;20500;-64
2023/03/07 07:12:08;;;;;;;2.80;2.33;;;4.60;98.00;;;;;;5055217;28;20779;-64
2023/03/07 07:14:35;;;;;;;3.93;1.80;;;4.60;98.00;;;;;;5072867;28;20870;-64
2023/03/07 07:17:02;;;;;;;4.30;2.00;;;4.70;98.00;;;;;;5072755;28;20471;-63
2023/03/07 07:19:29;;;;;;;4.90;1.93;;;4.80;98.00;;;;;;5054965;28;20461;-63
2023/03/07 07:21:57;;;;;;;5.27;2.63;;;4.60;98.00;;;;;;5072517;28;20823;-63
2023/03/07 07:24:25;;;;;;;4.03;2.47;;;4.60;98.00;;;;;;5072349;28;21035;-63
2023/03/07 07:26:52;;;;;;;4.13;1.60;;;4.60;98.00;;;;;;5072309;28;20456;-63
2023/03/07 07:29:20;;;;;;;3.37;1.93;;;4.60;98.00;;;;;;5072425;28;20945;-64
2023/03/07 07:31:48;;;;;;;2.40;1.80;;;4.70;98.00;;;;;;5054680;28;20469;-65
2023/03/07 07:34:16;;;;;;;2.73;2.03;;;4.80;98.00;;;;;;5054659;28;20463;-64
2023/03/07 07:36:43;;;;;;;2.63;1.93;;;4.90;98.00;;;;;;5072500;28;20461;-64
2023/03/07 07:39:14;;;;;;;6.20;2.17;;;4.90;98.00;;;;;;5072712;28;20454;-63
2023/03/07 07:41:41;;;;;;;15.90;2.20;;;4.80;98.00;;;;;;5072547;28;20460;-62
2023/03/07 07:44:08;;;;;;;3.13;1.93;;;4.80;98.00;;;;;;5072412;28;20918;-63
2023/03/07 07:46:35;;;;;;;1.50;1.43;;;4.90;98.00;;;;;;5072470;28;20479;-63
2023/03/07 07:49:02;;;;;;;2.97;1.90;;;4.90;98.00;;;;;;5072476;28;20455;-63
2023/03/07 07:51:29;;;;;;;3.80;2.97;;;5.00;98.00;;;;;;5072289;28;20451;-64
2023/03/07 07:54:00;;;;;;;2.57;2.00;;;5.10;98.00;;;;;;5072698;28;20457;-64
2023/03/07 07:56:29;;;;;;;4.50;2.60;;;5.10;98.00;;;;;;5072270;28;20463;-63
2023/03/07 07:58:57;;;;;;;3.50;1.67;;;5.10;98.00;;;;;;5072314;28;20459;-64
2023/03/07 08:01:25;;;;;;;1.80;1.70;;;5.10;98.00;;;;;;5072367;28;20463;-63
2023/03/07 08:03:52;;;;;;;3.83;2.60;;;5.20;98.00;;;;;;5072439;28;20475;-64
2023/03/07 08:06:22;;;;;;;3.30;1.77;;;5.20;98.00;;;;;;5072249;28;20487;-62
2023/03/07 08:08:49;;;;;;;3.47;2.37;;;5.30;98.00;;;;;;5072433;28;20453;-64
2023/03/07 08:11:16;;;;;;;2.50;2.00;;;5.40;98.00;;;;;;5072733;28;20464;-63
2023/03/07 08:13:45;;;;;;;5.60;2.13;;;5.50;98.00;;;;;;5072353;28;20555;-63
2023/03/07 08:16:15;;;;;;;6.93;2.87;;;5.60;98.00;;;;;;5072314;28;20461;-64
2023/03/07 08:18:43;;;;;;;2.00;1.60;;;5.60;98.00;;;;;;5054142;28;20452;-64
2023/03/07 08:21:10;;;;;;;6.47;3.27;;;5.60;98.00;;;;;;5071506;28;20459;-63
2023/03/07 08:23:37;;;;;;;2.83;1.97;;;5.70;98.00;;;;;;5070484;28;20890;-65
2023/03/07 08:26:06;;;;;;;3.57;2.20;;;5.70;98.00;;;;;;5071546;28;20488;-63
2023/03/07 08:28:33;;;;;;;2.87;1.77;;;5.80;98.00;;;;;;5070763;28;20453;-64
2023/03/07 08:31:08;;;;;;;3.83;1.83;;;5.80;98.00;;;;;;5071211;28;20528;-63
2023/03/07 08:33:35;;;;;;;4.03;2.03;;;5.90;98.00;;;;;;5070766;28;20460;-63
2023/03/07 08:36:02;;;;;;;2.10;1.70;;;6.00;98.00;;;;;;5071076;28;20457;-63
2023/03/07 08:38:29;;;;;;;1.83;1.60;;;6.00;98.00;;;;;;5071014;28;20452;-64
2023/03/07 08:41:00;;;;;;;4.57;2.30;;;6.10;98.00;;;;;;5071313;28;20877;-64
2023/03/07 08:43:28;;;;;;;3.47;2.50;;;6.20;98.00;;;;;;5071068;28;20501;-63
2023/03/07 08:45:55;;;;;;;6.17;2.20;;;6.20;98.00;;;;;;5070936;28;20579;-63
2023/03/07 08:48:26;;;;;;;1.63;1.43;;;6.30;98.00;;;;;;5071124;28;20452;-63
2023/03/07 08:50:54;;;;;;;4.80;2.40;;;6.40;98.00;;;;;;5071224;28;20534;-64
2023/03/07 08:53:22;;;;;;;4.07;2.23;;;6.50;98.00;;;;;;5070986;28;20458;-63
2023/03/07 08:55:49;;;;;;;3.77;2.30;;;6.40;98.00;;;;;;5071011;28;20460;-64
2023/03/07 08:58:16;;;;;;;2.07;1.83;;;6.50;98.00;;;;;;5052968;28;20462;-63
2023/03/07 09:00:43;;;;;;;2.27;2.10;;;6.60;98.00;;;;;;5071230;28;20455;-63
2023/03/07 09:03:10;;;;;;;4.47;2.17;;;6.70;98.00;;;;;;5071486;28;20458;-63
2023/03/07 09:05:40;;;;;;;3.03;2.07;;;6.90;98.00;;;;;;5074830;28;20482;-64
2023/03/07 09:08:07;;;;;;;8.10;2.73;;;7.00;98.00;;;;;;5061855;28;20464;-63
2023/03/07 09:10:35;;;;;;;4.30;2.27;;;7.20;98.00;;;;;;5054912;28;20446;-63
2023/03/07 09:13:02;;;;;;;4.07;1.77;;;7.30;98.00;;;;;;5054982;28;20457;-64
2023/03/07 09:15:29;;;;;;;7.30;3.60;;;7.10;98.00;;;;;;5054821;28;20461;-63
2023/03/07 09:17:57;;;;;;;2.07;1.60;;;7.00;98.00;;;;;;5054597;28;20457;-63
2023/03/07 09:20:24;;;;;;;6.90;3.03;;;7.10;98.00;;;;;;5054629;28;20979;-63
2023/03/07 09:22:53;;;;;;;3.07;2.30;;;7.00;98.00;;;;;;5054719;28;20547;-63
2023/03/07 09:25:20;;;;;;;5.63;2.27;;;7.00;98.00;;;;;;5054568;28;20854;-63
2023/03/07 09:27:56;;;;;;;2.27;1.90;;;6.90;98.00;;;;;;5054303;28;20957;-63
2023/03/07 09:30:24;;;;;;;3.97;2.17;;;6.80;98.00;;;;;;5054438;28;20486;-64
2023/03/07 09:32:59;;;;;;;7.77;3.53;;;7.00;98.00;;;;;;5054445;28;21037;-62
2023/03/07 09:35:26;;;;;;;3.20;2.37;;;6.90;98.00;;;;;;5054588;28;20536;-63
2023/03/07 09:37:54;;;;;;;4.70;2.43;;;7.00;98.00;;;;;;5053196;28;20463;-65
2023/03/07 09:40:25;;;;;;;5.57;2.57;;;7.20;98.00;;;;;;5054494;28;20798;-64
2023/03/07 09:43:02;;;;;;;5.77;2.10;;;7.00;98.00;;;;;;5054250;28;20464;-63
2023/03/07 09:45:43;;;;;;;5.30;2.93;;;7.00;98.00;;;;;;5056107;28;20487;-64
2023/03/07 09:48:53;;;;;;;2.63;1.93;;;7.10;98.00;;;;;;5074059;28;20473;-63
2023/03/07 09:51:25;;;;;;;6.33;2.40;;;7.10;98.00;;;;;;5011753;28;20483;-63
2023/03/07 09:53:58;;;;;;;6.10;3.00;;;7.20;98.00;;;;;;5066297;28;20493;-64
2023/03/07 09:56:30;;;;;;;5.57;2.60;;;7.20;98.00;;;;;;5073869;28;20459;-63
2023/03/07 09:59:02;;;;;;;11.67;2.57;;;7.10;98.00;;;;;;5073933;28;20541;-65
2023/03/07 10:01:33;;;;;;;6.47;2.80;;;7.20;98.00;;;;;;5074120;28;20463;-64
2023/03/07 10:04:03;;;;;;;6.57;3.10;;;7.20;98.00;;;;;;5074009;28;20460;-63
2023/03/07 10:06:35;;;;;;;4.80;2.20;;;7.20;98.00;;;;;;5073819;28;20481;-64
2023/03/07 10:09:07;;;;;;;2.80;1.60;;;7.20;98.00;;;;;;5056218;28;20468;-64
2023/03/07 10:11:56;;;;;;;2.40;1.70;;;7.20;98.00;;;;;;5073943;28;20821;-63
2023/03/07 10:14:43;;;;;;;3.50;2.00;;;7.20;96.80;;;;;;5073304;28;20472;-64
2023/03/07 10:17:20;;;;;;;3.27;1.87;;;7.20;97.30;;;;;;5073796;28;20975;-64
2023/03/07 10:19:50;;;;;;;3.33;2.07;;;7.20;96.70;;;;;;5073556;28;20459;-65
2023/03/07 10:22:26;;;;;;;2.47;2.00;;;7.20;98.00;;;;;;5073674;28;20457;-63
2023/03/07 10:25:14;;;;;;;5.03;2.20;;;7.30;97.40;;;;;;5073539;28;20471;-64
2023/03/07 10:27:41;;;;;;;3.70;2.07;;;7.30;96.90;;;;;;5073471;28;20459;-63
2023/03/07 10:30:16;;;;;;;4.50;2.77;;;7.30;97.70;;;;;;5073418;28;21014;-65
2023/03/07 10:32:45;;;;;;;4.63;2.30;;;7.30;96.60;;;;;;5073186;28;20465;-64
2023/03/07 10:35:20;;;;;;;2.37;2.03;;;7.10;97.40;;;;;;5073378;28;20758;-64
2023/03/07 10:37:50;;;;;;;4.00;2.03;;;6.90;96.70;;;;;;5073142;28;20995;-63
2023/03/07 10:40:29;;;;;;;4.23;2.03;;;6.90;97.40;;;;;;5073496;28;20952;-64
2023/03/07 10:42:58;;;;;;;1.90;1.50;;;6.60;97.80;;;;;;5073064;28;20458;-64
2023/03/07 10:45:29;;;;;;;4.37;2.10;;;6.50;98.00;;;;;;5066271;28;20893;-63
2023/03/07 10:47:59;;;;;;;3.03;2.27;;;6.30;98.00;;;;;;5052964;28;20532;-63
2023/03/07 10:50:40;;;;;;;2.80;2.00;;;6.20;98.00;;;;;;5053189;28;20464;-65
2023/03/07 10:53:22;;;;;;;4.43;2.27;;;6.20;98.00;;;;;;5051661;28;20463;-63
2023/03/07 10:55:51;;;;;;;5.50;2.60;;;6.10;98.00;;;;;;5052689;28;20485;-64
2023/03/07 10:58:22;;;;;;;2.77;2.00;;;6.20;98.00;;;;;;5055795;28;20460;-64
2023/03/07 11:01:29;;;;;;;2.63;1.63;;;6.10;98.00;;;;;;5072629;28;20877;-64
2023/03/07 11:04:00;;;;;;;3.20;1.63;;;6.10;98.00;;;;;;5072059;28;20949;-64
2023/03/07 11:06:31;;;;;;;2.97;1.93;;;6.00;98.00;;;;;;5072435;28;21037;-63
2023/03/07 11:09:17;;;;;;;2.00;1.53;;;6.20;98.00;;;;;;5072608;28;20484;-65
2023/03/07 11:12:07;;;;;;;3.93;2.23;;;6.20;98.00;;;;;;5072726;28;20457;-64
2023/03/07 11:14:48;;;;;;;4.80;2.20;;;6.20;98.00;;;;;;5071396;28;20503;-63
2023/03/07 11:17:20;;;;;;;2.10;1.60;;;6.10;98.00;;;;;;5054938;28;20467;-64
2023/03/07 11:19:47;;;;;;;2.50;2.17;;;6.10;98.00;;;;;;5071798;28;20460;-64
2023/03/07 11:22:21;;;;;;;4.17;1.83;;;6.10;98.00;;;;;;5072128;28;20452;-64
2023/03/07 11:24:53;;;;;;;5.60;3.20;;;6.20;98.00;;;;;;5072018;28;20477;-64
2023/03/07 11:27:31;;;;;;;7.33;3.17;;;6.30;98.00;;;;;;5071266;28;20880;-64
2023/03/07 11:30:30;;;;;;;2.13;1.57;;;6.30;98.00;;;;;;5072067;28;20463;-64
2023/03/07 11:33:09;;;;;;;5.20;2.20;;;6.20;97.40;;;;;;5071855;28;20463;-63
2023/03/07 11:35:58;;;;;;;3.53;1.97;;;6.20;97.60;;;;;;5071793;28;20459;-63
2023/03/07 11:38:55;;;;;;;2.37;1.40;;;6.30;97.70;;;;;;5071736;28;20560;-64
2023/03/07 11:41:26;;;;;;;6.40;2.03;;;6.40;97.80;;;;;;5070433;28;20465;-64
2023/03/07 11:44:04;;;;;;;2.30;1.87;;;6.30;96.90;;;;;;5071739;28;20541;-64
2023/03/07 11:46:44;;;;;;;2.10;1.60;;;6.20;97.20;;;;;;5071428;28;20497;-64
2023/03/07 11:49:30;;;;;;;2.90;1.73;;;6.20;97.30;;;;;;5071735;28;20472;-64
2023/03/07 11:52:08;;;;;;;2.40;1.90;;;6.20;97.20;;;;;;5071587;28;20467;-64
2023/03/07 11:54:42;;;;;;;3.67;2.00;;;6.10;97.00;;;;;;5071574;28;20513;-65
2023/03/07 11:57:19;;;;;;;4.90;2.43;;;6.10;97.70;;;;;;5071556;28;20451;-64
2023/03/07 12:00:13;;;;;;;4.37;2.03;;;6.10;98.00;;;;;;5071497;28;20475;-63
2023/03/07 12:03:02;;;;;;;4.17;2.13;;;6.10;98.00;;;;;;5058568;28;20737;-64
2023/03/07 12:05:55;;;;;;;4.00;2.00;;;6.10;98.00;;;;;;5071466;28;20864;-64
2023/03/07 12:08:49;;;;;;;2.90;2.00;;;6.10;98.00;;;;;;5055775;28;20510;-64
2023/03/07 12:11:31;;;;;;;5.83;1.80;;;6.10;97.80;;;;;;5071722;28;20867;-64
2023/03/07 12:14:06;;;;;;;4.23;2.03;;;6.10;98.00;;;;;;5071533;28;20465;-63
2023/03/07 12:16:45;;;;;;;4.07;2.17;;;6.10;97.40;;;;;;5071418;28;20454;-64
2023/03/07 12:19:36;;;;;;;4.43;2.40;;;6.00;97.20;;;;;;5071638;28;20471;-64
2023/03/07 12:22:19;;;;;;;2.33;1.70;;;6.10;96.90;;;;;;5071043;28;20460;-63
2023/03/07 12:24:58;;;;;;;3.87;1.60;;;6.10;97.60;;;;;;5054396;28;20453;-63
2023/03/07 12:27:30;;;;;;;3.40;2.43;;;6.00;96.80;;;;;;5055386;28;20590;-64
2023/03/07 12:30:03;;;;;;;3.40;1.83;;;6.00;96.40;;;;;;5071393;28;20967;-64
2023/03/07 12:32:35;;;;;;;2.83;2.33;;;6.00;96.90;;;;;;5072006;28;20478;-64
2023/03/07 12:35:10;;;;;;;2.93;1.93;;;6.10;96.30;;;;;;5071162;28;20957;-64
2023/03/07 12:37:43;;;;;;;5.43;2.30;;;6.00;95.60;;;;;;5071220;28;20481;-64
2023/03/07 12:40:20;;;;;;;4.03;2.43;;;6.00;96.30;;;;;;5071107;28;20486;-64
2023/03/07 12:42:55;;;;;;;2.77;1.60;;;6.10;96.00;;;;;;5070591;28;20882;-64
2023/03/07 12:45:24;;;;;;;1.57;1.50;;;6.20;96.20;;;;;;5071050;28;20878;-63
2023/03/07 12:48:00;;;;;;;2.53;1.90;;;6.30;95.50;;;;;;5070857;28;20503;-64
2023/03/07 12:50:31;;;;;;;5.93;3.07;;;6.40;95.90;;;;;;5070682;28;20457;-64
2023/03/07 12:53:05;;;;;;;3.57;2.07;;;6.40;94.80;;;;;;5053516;28;20462;-63
2023/03/07 12:55:38;;;;;;;3.70;2.03;;;6.40;95.00;;;;;;5070837;28;20463;-64
2023/03/07 12:58:12;;;;;;;1.83;1.60;;;6.40;95.80;;;;;;5070933;28;20458;-64
2023/03/07 13:00:43;;;;;;;4.17;2.20;;;6.30;94.70;;;;;;5071554;28;20552;-64
2023/03/07 13:03:24;;;;;;;3.17;2.00;;;6.40;95.00;;;;;;5070757;28;20453;-64
2023/03/07 13:05:51;;;;;;;2.27;2.17;;;6.60;95.50;;;;;;5070979;28;20506;-64
2023/03/07 13:08:26;;;;;;;3.30;2.37;;;6.70;94.10;;;;;;5070724;28;20957;-65
2023/03/07 13:10:53;;;;;;;6.63;2.60;;;6.90;94.10;;;;;;5070912;28;20453;-64
2023/03/07 13:13:57;;;;;;;4.20;2.63;;;6.90;93.00;;;;;;5070932;28;20458;-64
2023/03/07 13:16:41;;;;;;;3.03;2.07;;;6.90;92.50;;;;;;5069126;28;20459;-64